Time;durP1;ratioP1;P1;durP2;ratioP2;P2;SDS_P1;SDS_P2;PMS_P1;PMS_P2;Temp;Humidity;BMP_temperature;BMP_pressure;BME280_temperature;BME280_humidity;BME280_pressure;Samples;Min_cycle;Max_cycle;Signal;HPM_P1;HPM_P2
2021/01/02 00:02:16;;;;;;;33.00;18.50;;;3.30;99.90;;;;;;5104112;28;20408;-52
2021/01/02 00:04:51;;;;;;;30.77;17.88;;;3.30;99.90;;;;;;5103836;28;20369;-53
2021/01/02 00:07:31;;;;;;;33.00;18.67;;;3.90;99.90;;;;;;5097527;28;20413;-52
2021/01/02 00:10:00;;;;;;;29.88;17.90;;;3.20;99.90;;;;;;5095112;28;20861;-52
2021/01/02 00:13:03;;;;;;;31.13;18.52;;;3.20;99.90;;;;;;5097496;28;20398;-52
2021/01/02 00:15:59;;;;;;;29.55;17.70;;;3.20;99.90;;;;;;5089173;28;20448;-52
2021/01/02 00:18:36;;;;;;;30.73;17.50;;;3.10;99.90;;;;;;5092265;28;20400;-51
2021/01/02 00:21:11;;;;;;;30.25;17.23;;;3.10;99.90;;;;;;5082585;28;20392;-51
2021/01/02 00:24:08;;;;;;;30.35;17.90;;;3.20;99.90;;;;;;5070247;28;20498;-52
2021/01/02 00:26:54;;;;;;;29.20;17.40;;;3.20;99.90;;;;;;5075520;28;20463;-53
2021/01/02 00:29:22;;;;;;;27.70;16.13;;;3.20;99.90;;;;;;5076830;28;20875;-51
2021/01/02 00:32:09;;;;;;;25.50;16.20;;;3.50;99.90;;;;;;5075791;28;20453;-52
2021/01/02 00:35:05;;;;;;;30.63;17.92;;;3.10;99.90;;;;;;5073705;28;20437;-56
2021/01/02 00:37:36;;;;;;;29.88;16.50;;;3.20;99.90;;;;;;5071455;28;20429;-55
2021/01/02 00:40:06;;;;;;;30.73;17.20;;;3.10;99.90;;;;;;5079768;28;20515;-51
2021/01/02 00:42:32;;;;;;;30.20;17.90;;;3.10;99.90;;;;;;5075346;28;20399;-56
2021/01/02 00:44:59;;;;;;;33.45;18.30;;;3.10;99.90;;;;;;5076193;28;20768;-51
2021/01/02 00:47:27;;;;;;;33.92;18.48;;;5.60;99.90;;;;;;5076694;28;20896;-52
2021/01/02 00:49:57;;;;;;;29.45;18.00;;;4.20;99.90;;;;;;5078428;28;20400;-53
2021/01/02 00:52:45;;;;;;;30.45;16.70;;;5.60;99.90;;;;;;5080081;28;20420;-52
2021/01/02 00:55:22;;;;;;;29.80;17.67;;;3.30;99.90;;;;;;5074563;28;20407;-52
2021/01/02 00:58:21;;;;;;;29.20;17.92;;;3.30;99.90;;;;;;5076719;28;20396;-52
2021/01/02 01:01:07;;;;;;;28.80;16.70;;;0.70;99.90;;;;;;5077869;28;20398;-51
2021/01/02 01:04:09;;;;;;;27.60;17.67;;;3.40;99.90;;;;;;5085222;28;20939;-56
2021/01/02 01:06:38;;;;;;;27.55;16.63;;;3.20;99.90;;;;;;5074612;28;20906;-51
2021/01/02 01:09:05;;;;;;;31.42;17.60;;;3.10;99.90;;;;;;5081130;28;20480;-52
2021/01/02 01:11:36;;;;;;;30.30;17.35;;;3.00;99.90;;;;;;5081856;28;20396;-55
2021/01/02 01:14:03;;;;;;;31.37;18.10;;;4.40;99.90;;;;;;5082316;28;20409;-52
2021/01/02 01:16:43;;;;;;;31.25;19.63;;;5.50;99.90;;;;;;5078849;28;20401;-52
2021/01/02 01:19:11;;;;;;;30.73;18.50;;;2.90;99.90;;;;;;5077601;28;20909;-52
2021/01/02 01:21:46;;;;;;;43.40;21.30;;;5.20;99.90;;;;;;5079805;28;20392;-53
2021/01/02 01:24:25;;;;;;;49.70;23.20;;;2.90;99.90;;;;;;5080469;28;20392;-51
2021/01/02 01:26:59;;;;;;;40.33;21.98;;;2.90;99.90;;;;;;5078395;28;20430;-52
2021/01/02 01:29:28;;;;;;;30.00;18.35;;;2.90;99.90;;;;;;5077600;28;20759;-52
2021/01/02 01:31:58;;;;;;;31.15;18.33;;;3.60;99.90;;;;;;5077900;28;20486;-52
2021/01/02 01:34:26;;;;;;;29.05;18.27;;;3.40;99.90;;;;;;5079052;28;20483;-52
2021/01/02 01:36:52;;;;;;;30.48;18.50;;;2.70;99.90;;;;;;5078247;28;20930;-52
2021/01/02 01:39:23;;;;;;;28.97;17.60;;;5.50;99.90;;;;;;5074394;28;20884;-52
2021/01/02 01:41:57;;;;;;;30.23;17.45;;;2.60;99.90;;;;;;5080333;28;20408;-51
2021/01/02 01:44:52;;;;;;;30.53;17.70;;;2.60;99.90;;;;;;5077379;28;20395;-51
2021/01/02 01:47:22;;;;;;;30.23;17.77;;;2.60;99.90;;;;;;5079258;28;20526;-52
2021/01/02 01:49:57;;;;;;;30.85;18.10;;;2.50;99.90;;;;;;5082184;28;20847;-51
2021/01/02 01:53:00;;;;;;;32.92;17.67;;;2.50;99.90;;;;;;5080607;28;20460;-51
2021/01/02 01:55:43;;;;;;;32.05;17.83;;;2.50;99.90;;;;;;5071309;28;20440;-54
2021/01/02 01:58:15;;;;;;;32.13;18.98;;;3.70;99.90;;;;;;5076417;28;20460;-52
2021/01/02 02:00:51;;;;;;;28.48;16.60;;;2.50;99.90;;;;;;5077288;28;20387;-51
2021/01/02 02:03:26;;;;;;;30.98;18.33;;;2.60;99.90;;;;;;5077812;28;20387;-51
2021/01/02 02:06:00;;;;;;;29.73;18.35;;;2.60;99.90;;;;;;5081985;28;20399;-52
2021/01/02 02:08:47;;;;;;;28.60;17.77;;;4.20;99.90;;;;;;5081574;28;20410;-51
2021/01/02 02:11:33;;;;;;;33.23;19.00;;;2.60;99.90;;;;;;5077983;28;20869;-52
2021/01/02 02:14:15;;;;;;;31.90;19.08;;;2.70;99.90;;;;;;5077625;28;20892;-52
2021/01/02 02:16:51;;;;;;;32.40;18.95;;;2.90;99.90;;;;;;5077395;28;20400;-51
2021/01/02 02:19:53;;;;;;;30.03;18.10;;;2.80;99.90;;;;;;5078355;28;20485;-54
2021/01/02 02:22:22;;;;;;;30.50;18.20;;;2.70;99.90;;;;;;5077661;28;20448;-51
2021/01/02 02:24:48;;;;;;;28.20;17.60;;;2.70;99.90;;;;;;5077275;28;20493;-52
2021/01/02 02:27:14;;;;;;;30.92;17.80;;;3.50;99.90;;;;;;5076604;28;20504;-52
2021/01/02 02:29:58;;;;;;;29.43;17.50;;;2.60;99.90;;;;;;5082019;28;20401;-52
2021/01/02 02:32:27;;;;;;;26.33;17.48;;;2.60;99.90;;;;;;5084146;28;20386;-51
2021/01/02 02:34:53;;;;;;;30.30;17.20;;;4.70;99.90;;;;;;5078980;28;20910;-51
2021/01/02 02:37:19;;;;;;;29.67;17.25;;;2.90;99.90;;;;;;5077660;28;20401;-53
2021/01/02 02:40:05;;;;;;;29.70;18.10;;;2.70;99.90;;;;;;5076876;28;20516;-51
2021/01/02 02:42:33;;;;;;;28.50;18.30;;;2.60;99.90;;;;;;5070832;28;20380;-52
2021/01/02 02:45:00;;;;;;;27.87;16.67;;;2.60;99.90;;;;;;5077900;28;20395;-52
2021/01/02 02:47:30;;;;;;;28.00;17.60;;;2.70;99.90;;;;;;5076779;28;20483;-52
2021/01/02 02:49:58;;;;;;;27.00;17.10;;;3.80;99.90;;;;;;5078363;28;20399;-52
2021/01/02 02:52:24;;;;;;;29.48;16.85;;;2.80;99.90;;;;;;5076878;28;20388;-52
2021/01/02 02:54:50;;;;;;;26.07;16.53;;;4.60;99.90;;;;;;5084446;28;20447;-52
2021/01/02 02:57:17;;;;;;;28.13;16.38;;;2.90;99.90;;;;;;5080520;28;20426;-53
2021/01/02 02:59:43;;;;;;;26.60;16.30;;;2.90;99.90;;;;;;5077657;28;20394;-52
2021/01/02 03:02:09;;;;;;;27.73;16.73;;;3.00;99.90;;;;;;5082829;28;20366;-52
2021/01/02 03:04:35;;;;;;;26.85;16.88;;;3.00;99.90;;;;;;5077359;28;20488;-52
2021/01/02 03:07:03;;;;;;;28.07;16.40;;;4.30;99.90;;;;;;5077648;28;20432;-51
2021/01/02 03:09:30;;;;;;;28.27;16.97;;;5.20;99.90;;;;;;5076719;28;20427;-54
2021/01/02 03:11:56;;;;;;;30.67;18.03;;;4.30;99.90;;;;;;5075480;28;20398;-53
2021/01/02 03:14:22;;;;;;;26.87;17.07;;;2.70;99.90;;;;;;5077858;28;20387;-51
2021/01/02 03:16:47;;;;;;;26.20;16.25;;;4.40;99.90;;;;;;5075299;28;20759;-52
2021/01/02 03:19:13;;;;;;;28.90;17.33;;;4.70;99.90;;;;;;5072889;28;20391;-52
2021/01/02 03:21:38;;;;;;;28.50;16.77;;;2.60;99.90;;;;;;5076060;28;20482;-52
2021/01/02 03:24:07;;;;;;;29.85;17.48;;;5.20;99.90;;;;;;5076351;28;20400;-52
2021/01/02 03:26:33;;;;;;;29.33;17.97;;;2.60;99.90;;;;;;5070386;28;20847;-52
2021/01/02 03:28:59;;;;;;;25.67;16.20;;;2.60;99.90;;;;;;5076647;28;20387;-52
2021/01/02 03:31:24;;;;;;;25.87;16.60;;;2.60;99.90;;;;;;5076429;28;20740;-52
2021/01/02 03:33:50;;;;;;;27.10;16.83;;;3.20;99.90;;;;;;5074922;28;20388;-51
2021/01/02 03:36:16;;;;;;;26.63;16.45;;;4.10;99.90;;;;;;5085732;28;20436;-52
2021/01/02 03:38:53;;;;;;;27.60;17.20;;;5.10;99.90;;;;;;5075547;28;20867;-52
2021/01/02 03:41:19;;;;;;;28.60;16.90;;;2.90;99.90;;;;;;5078656;28;20846;-51
2021/01/02 03:43:45;;;;;;;29.50;17.13;;;2.80;99.90;;;;;;5082370;28;20395;-51
2021/01/02 03:46:10;;;;;;;30.52;17.60;;;2.80;99.90;;;;;;5079807;28;20434;-52
2021/01/02 03:48:36;;;;;;;27.07;16.80;;;2.70;99.90;;;;;;5076245;28;20410;-55
2021/01/02 03:51:02;;;;;;;28.85;17.13;;;2.70;99.90;;;;;;5080343;28;20497;-51
2021/01/02 03:53:29;;;;;;;32.28;17.23;;;2.70;99.90;;;;;;5077102;28;20414;-52
2021/01/02 03:55:54;;;;;;;28.10;17.27;;;5.70;99.90;;;;;;5086112;28;20972;-52
2021/01/02 03:58:20;;;;;;;29.43;16.70;;;4.00;99.90;;;;;;5075742;28;20396;-52
2021/01/02 04:00:45;;;;;;;26.40;17.13;;;3.10;99.90;;;;;;5075095;28;20548;-52
2021/01/02 04:03:11;;;;;;;28.00;17.90;;;5.10;99.90;;;;;;5084994;28;20435;-52
2021/01/02 04:05:37;;;;;;;29.53;17.90;;;4.90;99.90;;;;;;5070728;28;20436;-56
2021/01/02 04:08:03;;;;;;;34.63;18.00;;;2.90;99.90;;;;;;5080169;28;20412;-53
2021/01/02 04:10:29;;;;;;;33.00;19.15;;;3.00;99.90;;;;;;5077808;28;20385;-52
2021/01/02 04:12:54;;;;;;;35.47;19.30;;;3.90;99.90;;;;;;5075164;28;20590;-53
2021/01/02 04:15:20;;;;;;;29.05;17.27;;;5.20;99.90;;;;;;5075532;28;20411;-52
2021/01/02 04:17:45;;;;;;;27.83;17.40;;;2.90;99.90;;;;;;5082270;28;20400;-53
2021/01/02 04:20:12;;;;;;;27.15;17.05;;;2.90;99.90;;;;;;5076976;28;20382;-52
2021/01/02 04:22:38;;;;;;;28.55;16.77;;;2.90;99.90;;;;;;5078032;28;20400;-56
2021/01/02 04:25:05;;;;;;;33.10;18.37;;;2.90;99.90;;;;;;5082044;28;20477;-52
2021/01/02 04:27:31;;;;;;;30.50;17.95;;;2.90;99.90;;;;;;5079655;28;20905;-52
2021/01/02 04:29:56;;;;;;;28.07;17.67;;;3.00;99.90;;;;;;5082528;28;20374;-52
2021/01/02 04:32:22;;;;;;;28.30;16.90;;;3.80;99.90;;;;;;5081198;28;20400;-52
2021/01/02 04:34:48;;;;;;;33.55;19.17;;;3.80;99.90;;;;;;5078765;28;20915;-52
2021/01/02 04:37:14;;;;;;;29.45;17.67;;;3.00;99.90;;;;;;5089010;28;20392;-52
2021/01/02 04:39:40;;;;;;;25.60;16.77;;;5.70;99.90;;;;;;5079462;28;20392;-52
2021/01/02 04:42:06;;;;;;;30.52;17.17;;;3.00;99.90;;;;;;5075863;28;20391;-52
2021/01/02 04:44:32;;;;;;;28.63;17.23;;;3.00;99.90;;;;;;5078996;28;20491;-52
2021/01/02 04:47:00;;;;;;;26.90;17.25;;;4.90;99.90;;;;;;5078739;28;20453;-52
2021/01/02 04:49:26;;;;;;;31.05;17.60;;;3.10;99.90;;;;;;5081564;28;20489;-52
2021/01/02 04:51:59;;;;;;;27.63;17.10;;;3.10;99.90;;;;;;5079927;28;20473;-52
2021/01/02 04:54:25;;;;;;;31.47;18.93;;;3.80;99.90;;;;;;5079578;28;20402;-52
2021/01/02 04:56:50;;;;;;;29.35;17.92;;;3.10;99.90;;;;;;5078837;28;20434;-52
2021/01/02 04:59:18;;;;;;;27.77;16.50;;;5.80;99.90;;;;;;5087878;28;20883;-52
2021/01/02 05:01:49;;;;;;;28.65;17.17;;;3.00;99.90;;;;;;5079673;28;20472;-52
2021/01/02 05:04:15;;;;;;;31.30;17.73;;;4.30;99.90;;;;;;5079033;28;20401;-51
2021/01/02 05:06:41;;;;;;;28.88;17.50;;;3.80;99.90;;;;;;5080385;28;20387;-52
2021/01/02 05:09:07;;;;;;;31.45;17.27;;;2.80;99.90;;;;;;5074809;28;20415;-52
2021/01/02 05:11:40;;;;;;;31.60;17.80;;;2.70;99.90;;;;;;5081693;28;20378;-52
2021/01/02 05:14:06;;;;;;;32.55;18.20;;;4.80;99.90;;;;;;5082574;28;20399;-52
2021/01/02 05:16:37;;;;;;;29.17;17.57;;;2.80;99.90;;;;;;5077645;28;20394;-52
2021/01/02 05:19:05;;;;;;;29.23;17.58;;;2.70;99.90;;;;;;5079460;28;20390;-51
2021/01/02 05:21:32;;;;;;;31.42;17.52;;;2.90;99.90;;;;;;5076395;28;20390;-51
2021/01/02 05:24:20;;;;;;;29.33;17.20;;;5.10;99.90;;;;;;5077766;28;20390;-52
2021/01/02 05:26:55;;;;;;;31.45;17.58;;;3.00;99.90;;;;;;5077576;28;20425;-53
2021/01/02 05:29:23;;;;;;;33.60;18.10;;;2.90;99.90;;;;;;5079678;28;20433;-52
2021/01/02 05:31:50;;;;;;;33.10;18.53;;;2.80;99.90;;;;;;5077802;28;20396;-52
2021/01/02 05:34:18;;;;;;;33.15;18.00;;;2.90;99.90;;;;;;5085256;28;20879;-51
2021/01/02 05:36:44;;;;;;;37.15;19.05;;;4.80;99.90;;;;;;5078770;28;20864;-52
2021/01/02 05:39:11;;;;;;;34.03;18.17;;;3.10;99.90;;;;;;5082424;28;20486;-52
2021/01/02 05:41:52;;;;;;;34.45;17.85;;;3.70;99.90;;;;;;5080251;28;20491;-56
2021/01/02 05:44:18;;;;;;;32.40;18.23;;;3.20;99.90;;;;;;5081129;28;20727;-52
2021/01/02 05:46:52;;;;;;;42.08;19.65;;;3.20;99.90;;;;;;5080110;28;20423;-52
2021/01/02 05:49:48;;;;;;;39.20;20.60;;;3.20;99.90;;;;;;5076415;28;20390;-52
2021/01/02 05:52:14;;;;;;;43.00;21.00;;;3.20;99.90;;;;;;5066841;28;20434;-52
2021/01/02 05:54:50;;;;;;;49.63;22.25;;;3.20;99.90;;;;;;5076657;28;20390;-53
2021/01/02 05:57:26;;;;;;;40.47;20.55;;;3.50;99.90;;;;;;5080278;28;20422;-52
2021/01/02 05:59:54;;;;;;;46.63;22.48;;;3.00;99.90;;;;;;5077758;28;20400;-52
2021/01/02 06:02:29;;;;;;;47.97;23.02;;;2.90;99.90;;;;;;5077971;28;20429;-53
2021/01/02 06:05:06;;;;;;;50.17;22.70;;;2.90;99.90;;;;;;5078378;28;20426;-52
2021/01/02 06:07:37;;;;;;;42.60;21.60;;;2.70;99.90;;;;;;5084230;28;20421;-52
2021/01/02 06:10:07;;;;;;;48.58;22.40;;;4.30;99.90;;;;;;5077253;28;20447;-52
2021/01/02 06:12:33;;;;;;;45.92;21.23;;;2.90;99.90;;;;;;5078659;28;20400;-51
2021/01/02 06:15:02;;;;;;;43.85;21.67;;;2.90;99.90;;;;;;5081349;28;20878;-52
2021/01/02 06:17:35;;;;;;;47.37;22.70;;;2.90;99.90;;;;;;5083337;28;20406;-52
2021/01/02 06:20:08;;;;;;;46.00;21.92;;;3.00;99.90;;;;;;5078298;28;20442;-52
2021/01/02 06:22:35;;;;;;;48.13;21.95;;;3.00;99.90;;;;;;5077441;28;20472;-51
2021/01/02 06:25:04;;;;;;;44.10;21.17;;;4.40;99.90;;;;;;5078011;28;20394;-52
2021/01/02 06:27:30;;;;;;;46.80;21.60;;;3.00;99.90;;;;;;5077174;28;20488;-51
2021/01/02 06:29:58;;;;;;;47.87;22.97;;;3.30;99.90;;;;;;5078818;28;20995;-51
2021/01/02 06:32:25;;;;;;;43.13;20.40;;;2.90;99.90;;;;;;5077988;28;20392;-53
2021/01/02 06:35:06;;;;;;;40.08;20.05;;;2.80;99.90;;;;;;5080099;28;20401;-51
2021/01/02 06:37:50;;;;;;;50.83;23.10;;;3.80;99.90;;;;;;5079842;28;20762;-52
2021/01/02 06:40:30;;;;;;;38.50;19.23;;;3.10;99.90;;;;;;5077133;28;20403;-51
2021/01/02 06:42:57;;;;;;;33.63;19.90;;;2.60;99.90;;;;;;5084573;28;20398;-51
2021/01/02 06:45:35;;;;;;;36.70;18.00;;;2.60;99.90;;;;;;5094588;28;20386;-52
2021/01/02 06:48:16;;;;;;;37.03;19.10;;;4.50;99.90;;;;;;5077878;28;20415;-54
2021/01/02 06:50:49;;;;;;;39.75;18.65;;;5.20;99.90;;;;;;5093879;28;20873;-52
2021/01/02 06:53:25;;;;;;;36.00;19.30;;;3.40;99.90;;;;;;5084643;28;20494;-52
2021/01/02 06:56:04;;;;;;;35.53;18.35;;;2.60;99.90;;;;;;5083874;28;20405;-52
2021/01/02 06:58:50;;;;;;;41.05;19.50;;;2.60;99.90;;;;;;5083826;28;20523;-51
2021/01/02 07:01:15;;;;;;;39.03;20.10;;;2.50;99.90;;;;;;5101849;28;20405;-51
2021/01/02 07:03:45;;;;;;;39.65;20.88;;;3.70;99.90;;;;;;5098172;28;20392;-52
2021/01/02 07:08:47;;;;;;;43.23;21.40;;;2.30;99.90;;;;;;5089777;28;20502;-52
2021/01/02 07:11:36;;;;;;;40.75;19.52;;;2.30;99.90;;;;;;5084073;28;20874;-51
2021/01/02 07:14:07;;;;;;;45.00;21.63;;;5.30;99.90;;;;;;5093040;28;20389;-51
2021/01/02 07:16:38;;;;;;;47.63;22.20;;;4.30;99.90;;;;;;5080141;28;20406;-52
2021/01/02 07:19:06;;;;;;;48.42;23.17;;;2.60;99.90;;;;;;5079249;28;20394;-51
2021/01/02 07:21:38;;;;;;;41.13;20.30;;;5.10;99.90;;;;;;5071793;28;20394;-52
2021/01/02 07:24:21;;;;;;;42.53;21.02;;;3.80;99.90;;;;;;5078473;28;20413;-52
2021/01/02 07:26:47;;;;;;;48.47;22.15;;;2.90;99.90;;;;;;5075215;28;20408;-52
2021/01/02 07:29:20;;;;;;;47.97;23.00;;;2.30;99.90;;;;;;5078360;28;20463;-52
2021/01/02 07:31:46;;;;;;;46.75;21.45;;;2.70;99.90;;;;;;5080819;28;20405;-51
2021/01/02 07:34:21;;;;;;;45.78;21.13;;;3.80;99.90;;;;;;5075896;28;20425;-51
2021/01/02 07:36:50;;;;;;;48.15;23.42;;;2.30;99.90;;;;;;5074268;28;20471;-52
2021/01/02 07:39:17;;;;;;;43.95;21.60;;;2.50;99.90;;;;;;5081207;28;20395;-54
2021/01/02 07:41:43;;;;;;;44.40;20.95;;;3.50;99.90;;;;;;5078081;28;20834;-52
2021/01/02 07:44:09;;;;;;;53.30;23.07;;;4.50;99.90;;;;;;5083084;28;20924;-51
2021/01/02 07:46:43;;;;;;;50.30;21.50;;;4.40;99.90;;;;;;5081317;28;20397;-53
2021/01/02 07:49:09;;;;;;;45.83;21.63;;;2.50;99.90;;;;;;5083659;28;20406;-51
2021/01/02 07:51:35;;;;;;;46.35;22.00;;;3.20;99.90;;;;;;5079201;28;20423;-52
2021/01/02 07:54:00;;;;;;;50.75;21.80;;;2.60;99.90;;;;;;5080170;28;20434;-52
2021/01/02 07:56:37;;;;;;;57.00;21.63;;;2.70;99.90;;;;;;5086575;28;20792;-51
2021/01/02 07:59:25;;;;;;;48.13;20.90;;;2.70;99.90;;;;;;5090278;28;20784;-52
2021/01/02 08:01:52;;;;;;;48.67;21.10;;;2.80;99.90;;;;;;5084287;28;20896;-52
2021/01/02 08:04:19;;;;;;;45.70;20.58;;;5.30;99.90;;;;;;5089385;28;20398;-52
2021/01/02 08:06:55;;;;;;;49.00;21.77;;;2.70;99.90;;;;;;5081735;28;20376;-52
2021/01/02 08:09:21;;;;;;;50.50;20.58;;;3.40;99.90;;;;;;5078809;28;20407;-51
2021/01/02 08:11:51;;;;;;;42.33;20.60;;;4.80;99.90;;;;;;5094171;28;20380;-51
2021/01/02 08:14:18;;;;;;;48.78;21.30;;;3.30;99.90;;;;;;5078141;28;20483;-53
2021/01/02 08:17:07;;;;;;;53.03;22.63;;;3.20;99.90;;;;;;5075141;28;20848;-52
2021/01/02 08:19:47;;;;;;;51.38;21.90;;;2.80;99.90;;;;;;5089895;28;20398;-51
2021/01/02 08:22:14;;;;;;;53.47;23.60;;;2.20;99.90;;;;;;5097699;28;20463;-52
2021/01/02 08:24:42;;;;;;;49.07;22.40;;;2.70;99.90;;;;;;5086653;28;20403;-56
2021/01/02 08:27:08;;;;;;;46.97;21.70;;;4.90;99.90;;;;;;5084346;28;20418;-53
2021/01/02 08:29:34;;;;;;;47.00;20.30;;;3.60;99.90;;;;;;5076084;28;20374;-52
2021/01/02 08:32:13;;;;;;;45.90;21.10;;;2.90;99.90;;;;;;5086072;28;20486;-52
2021/01/02 08:34:45;;;;;;;43.25;21.35;;;2.90;99.90;;;;;;5081827;28;20397;-56
2021/01/02 08:37:14;;;;;;;50.95;23.10;;;3.80;99.90;;;;;;5089848;28;20893;-52
2021/01/02 08:39:41;;;;;;;55.63;25.55;;;4.80;99.90;;;;;;5086239;28;20442;-54
2021/01/02 08:42:08;;;;;;;50.95;23.80;;;5.70;99.90;;;;;;5092226;28;20393;-52
2021/01/02 08:44:54;;;;;;;55.85;23.83;;;2.80;99.90;;;;;;5076132;28;20396;-53
2021/01/02 08:47:25;;;;;;;52.88;24.38;;;5.50;99.90;;;;;;5075122;28;20418;-52
2021/01/02 08:49:51;;;;;;;53.63;25.10;;;3.20;99.90;;;;;;5079766;28;20441;-52
2021/01/02 08:52:27;;;;;;;55.77;25.50;;;2.80;99.90;;;;;;5085788;28;20404;-52
2021/01/02 08:55:08;;;;;;;51.70;23.83;;;5.10;99.90;;;;;;5096263;28;20762;-52
2021/01/02 08:57:41;;;;;;;52.83;24.25;;;2.90;99.90;;;;;;5097182;28;20507;-52
2021/01/02 09:00:11;;;;;;;43.53;20.92;;;3.00;99.90;;;;;;5098056;28;20398;-53
2021/01/02 09:02:38;;;;;;;41.70;20.20;;;2.90;99.90;;;;;;5082406;28;20960;-55
2021/01/02 09:05:08;;;;;;;52.40;23.00;;;5.90;99.90;;;;;;5078446;28;20415;-52
2021/01/02 09:07:35;;;;;;;50.38;23.30;;;2.80;99.90;;;;;;5081359;28;20412;-52
2021/01/02 09:10:20;;;;;;;49.85;24.58;;;2.80;99.90;;;;;;5078503;28;20751;-51
2021/01/02 09:13:06;;;;;;;51.30;25.23;;;2.80;99.90;;;;;;5077979;28;20418;-52
2021/01/02 09:15:56;;;;;;;53.63;23.95;;;2.70;99.90;;;;;;5079243;28;20398;-53
2021/01/02 09:18:30;;;;;;;55.05;24.88;;;2.80;99.90;;;;;;5084255;28;20399;-52
2021/01/02 09:20:57;;;;;;;53.92;24.30;;;2.80;99.90;;;;;;5077251;28;20639;-52
2021/01/02 09:23:31;;;;;;;55.63;24.83;;;2.90;99.90;;;;;;5086133;28;20494;-53
2021/01/02 09:25:56;;;;;;;47.10;22.30;;;0.50;99.90;;;;;;5083331;28;20475;-51
2021/01/02 09:28:22;;;;;;;46.13;23.20;;;3.10;99.90;;;;;;5082846;28;20793;-51
2021/01/02 09:30:49;;;;;;;49.42;23.50;;;2.80;99.90;;;;;;5077853;28;20490;-53
2021/01/02 09:33:15;;;;;;;47.00;22.73;;;2.90;99.90;;;;;;5079431;28;20901;-52
2021/01/02 09:35:44;;;;;;;42.93;21.13;;;3.00;99.90;;;;;;5078784;28;20477;-54
2021/01/02 09:38:10;;;;;;;43.65;22.10;;;2.90;99.90;;;;;;5082102;28;20404;-52
2021/01/02 09:40:40;;;;;;;40.10;21.27;;;5.60;99.90;;;;;;5077828;28;20399;-52
2021/01/02 09:43:08;;;;;;;42.70;20.02;;;2.90;99.90;;;;;;5078075;28;20483;-52
2021/01/02 09:45:34;;;;;;;41.65;18.92;;;2.90;99.90;;;;;;5078924;28;20391;-51
2021/01/02 09:47:59;;;;;;;37.42;18.73;;;3.30;99.90;;;;;;5082451;28;21274;-52
2021/01/02 09:50:25;;;;;;;36.95;18.48;;;3.30;99.90;;;;;;5080502;28;20398;-52
2021/01/02 09:52:51;;;;;;;38.85;18.08;;;5.60;99.90;;;;;;5081461;28;20506;-52
2021/01/02 09:55:17;;;;;;;34.55;18.45;;;3.00;99.90;;;;;;5083790;28;20481;-52
2021/01/02 09:57:49;;;;;;;34.75;16.73;;;3.10;99.90;;;;;;5083322;28;20429;-53
2021/01/02 10:00:16;;;;;;;32.92;17.20;;;3.10;99.90;;;;;;5074576;28;20400;-53
2021/01/02 10:02:42;;;;;;;35.25;17.25;;;3.10;99.90;;;;;;5078673;28;20418;-53
2021/01/02 10:05:08;;;;;;;33.23;17.50;;;3.20;99.90;;;;;;5082279;28;20958;-52
2021/01/02 10:07:34;;;;;;;34.13;18.13;;;3.30;99.90;;;;;;5084406;28;20492;-52
2021/01/02 10:09:59;;;;;;;30.47;16.30;;;4.50;99.90;;;;;;5077977;28;20479;-52
2021/01/02 10:12:25;;;;;;;32.40;15.67;;;3.40;99.90;;;;;;5076647;28;20396;-52
2021/01/02 10:14:51;;;;;;;31.25;15.85;;;3.40;99.90;;;;;;5076526;28;20399;-52
2021/01/02 10:17:16;;;;;;;32.13;16.07;;;3.50;99.90;;;;;;5088640;28;20932;-52
2021/01/02 10:19:44;;;;;;;34.43;17.60;;;3.60;99.90;;;;;;5078079;28;20431;-52
2021/01/02 10:22:10;;;;;;;32.10;15.32;;;3.70;99.90;;;;;;5077640;28;20399;-52
2021/01/02 10:24:36;;;;;;;32.92;16.40;;;5.60;99.90;;;;;;5081619;28;20392;-51
2021/01/02 10:27:03;;;;;;;31.00;17.10;;;3.80;99.90;;;;;;5073959;28;20928;-51
2021/01/02 10:29:29;;;;;;;37.15;18.77;;;3.50;99.90;;;;;;5077125;28;20426;-52
2021/01/02 10:32:02;;;;;;;30.55;17.00;;;3.60;99.90;;;;;;5088708;28;20890;-52
2021/01/02 10:34:29;;;;;;;34.20;16.90;;;3.80;99.90;;;;;;5084978;28;20394;-52
2021/01/02 10:36:55;;;;;;;30.85;16.45;;;3.70;99.90;;;;;;5074947;28;20498;-55
2021/01/02 10:39:22;;;;;;;38.00;17.10;;;3.60;99.90;;;;;;5081676;28;20386;-52
2021/01/02 10:41:50;;;;;;;32.08;16.05;;;3.50;99.90;;;;;;5090554;28;20392;-52
2021/01/02 10:44:18;;;;;;;33.63;16.98;;;3.40;99.90;;;;;;5083870;28;20391;-51
2021/01/02 10:46:50;;;;;;;37.60;19.48;;;3.50;99.90;;;;;;5098832;28;20387;-52
2021/01/02 10:49:18;;;;;;;31.30;16.25;;;4.70;99.90;;;;;;5075826;28;20427;-52
2021/01/02 10:51:45;;;;;;;33.90;16.77;;;3.60;99.90;;;;;;5078572;28;20440;-52
2021/01/02 10:54:12;;;;;;;31.95;16.05;;;3.70;99.90;;;;;;5074187;28;20406;-51
2021/01/02 10:56:44;;;;;;;30.20;17.20;;;3.70;99.90;;;;;;5078952;28;20403;-55
2021/01/02 10:59:09;;;;;;;30.95;16.15;;;3.70;99.90;;;;;;5076147;28;20403;-52
2021/01/02 11:01:47;;;;;;;30.35;15.88;;;3.50;99.90;;;;;;5079684;28;20399;-51
2021/01/02 11:04:14;;;;;;;30.13;15.30;;;3.50;99.90;;;;;;5087852;28;20394;-51
2021/01/02 11:06:41;;;;;;;28.98;15.30;;;3.40;99.90;;;;;;5077408;28;20428;-55
2021/01/02 11:09:09;;;;;;;32.78;16.40;;;2.70;99.90;;;;;;5076102;28;20951;-52
2021/01/02 11:11:35;;;;;;;32.15;16.60;;;3.50;99.90;;;;;;5075712;28;20509;-52
2021/01/02 11:14:01;;;;;;;31.97;15.90;;;3.50;99.90;;;;;;5084927;28;20857;-52
2021/01/02 11:16:30;;;;;;;32.97;17.15;;;3.60;99.90;;;;;;5076768;28;20502;-51
2021/01/02 11:18:56;;;;;;;32.28;16.60;;;3.70;99.90;;;;;;5079894;28;20405;-53
2021/01/02 11:21:22;;;;;;;31.45;17.40;;;5.00;99.90;;;;;;5075610;28;20478;-52
2021/01/02 11:23:47;;;;;;;36.47;17.30;;;3.70;99.90;;;;;;5074815;28;20477;-52
2021/01/02 11:26:13;;;;;;;36.80;17.57;;;4.60;99.90;;;;;;5086066;28;20433;-52
2021/01/02 11:28:39;;;;;;;39.53;17.35;;;3.70;99.90;;;;;;5094981;28;20443;-52
2021/01/02 11:31:04;;;;;;;30.73;15.52;;;3.50;99.90;;;;;;5085755;28;20832;-52
2021/01/02 11:33:30;;;;;;;32.23;16.77;;;5.80;99.90;;;;;;5077324;28;20400;-51
2021/01/02 11:36:08;;;;;;;31.20;15.70;;;3.80;99.90;;;;;;5076727;28;20737;-51
2021/01/02 11:38:33;;;;;;;29.88;15.48;;;3.80;99.90;;;;;;5073007;28;20388;-51
2021/01/02 11:40:59;;;;;;;29.53;15.73;;;3.90;99.90;;;;;;5071748;28;21291;-51
2021/01/02 11:43:25;;;;;;;28.25;15.05;;;4.10;99.90;;;;;;5072923;28;20971;-51
2021/01/02 11:45:50;;;;;;;31.10;14.85;;;4.10;99.90;;;;;;5073250;28;20396;-51
2021/01/02 11:48:16;;;;;;;32.10;16.10;;;4.50;99.90;;;;;;5071333;28;20884;-52
2021/01/02 11:50:42;;;;;;;32.83;15.90;;;4.20;99.90;;;;;;5074415;28;20843;-52
2021/01/02 11:53:09;;;;;;;34.20;16.70;;;4.50;99.90;;;;;;5078168;28;20507;-52
2021/01/02 11:55:35;;;;;;;31.30;16.77;;;4.10;99.90;;;;;;5075099;28;20717;-51
2021/01/02 11:58:02;;;;;;;31.17;15.90;;;5.20;99.90;;;;;;5076718;28;20667;-52
2021/01/02 12:00:30;;;;;;;29.95;15.60;;;3.70;99.90;;;;;;5095338;28;20406;-52
2021/01/02 12:02:58;;;;;;;26.90;15.18;;;3.70;99.90;;;;;;5091341;28;20867;-51
2021/01/02 12:05:24;;;;;;;29.73;14.65;;;3.80;99.90;;;;;;5087920;28;20396;-52
2021/01/02 12:07:50;;;;;;;31.23;15.13;;;3.90;99.90;;;;;;5088948;28;20411;-53
2021/01/02 12:10:17;;;;;;;29.33;16.30;;;3.70;99.90;;;;;;5080435;28;20408;-52
2021/01/02 12:12:43;;;;;;;29.27;16.30;;;4.60;99.90;;;;;;5075358;28;20420;-55
2021/01/02 12:15:10;;;;;;;29.67;15.52;;;5.30;99.90;;;;;;5081089;28;20388;-52
2021/01/02 12:17:35;;;;;;;30.02;15.85;;;3.90;99.90;;;;;;5072190;28;20402;-52
2021/01/02 12:20:02;;;;;;;27.43;14.47;;;4.40;99.90;;;;;;5076408;28;20888;-52
2021/01/02 12:22:29;;;;;;;30.55;16.10;;;4.00;99.90;;;;;;5085177;28;20887;-53
2021/01/02 12:24:55;;;;;;;30.75;16.55;;;4.00;99.90;;;;;;5081738;28;20390;-52
2021/01/02 12:27:21;;;;;;;30.85;16.60;;;4.00;99.90;;;;;;5096157;28;20410;-52
2021/01/02 12:29:46;;;;;;;30.90;16.85;;;5.00;99.90;;;;;;5073069;28;20425;-52
2021/01/02 12:32:12;;;;;;;31.20;16.67;;;3.80;99.90;;;;;;5074747;28;20390;-52
2021/01/02 12:34:41;;;;;;;25.33;14.47;;;3.80;99.90;;;;;;5074326;28;20425;-52
2021/01/02 12:37:13;;;;;;;27.52;15.27;;;5.50;99.90;;;;;;5082551;28;20440;-52
2021/01/02 12:39:40;;;;;;;29.45;15.98;;;3.80;99.90;;;;;;5076322;28;20395;-52
2021/01/02 12:42:06;;;;;;;30.90;16.75;;;4.80;99.90;;;;;;5075961;28;20405;-53
2021/01/02 12:44:32;;;;;;;28.30;15.13;;;3.70;99.90;;;;;;5076177;28;20394;-51
2021/01/02 12:47:01;;;;;;;27.30;15.13;;;3.70;99.90;;;;;;5081496;28;20402;-52
2021/01/02 12:49:32;;;;;;;28.92;15.60;;;3.70;99.90;;;;;;5078935;28;20862;-51
2021/01/02 12:52:00;;;;;;;28.63;15.50;;;3.70;99.90;;;;;;5078527;28;20454;-51
2021/01/02 12:54:26;;;;;;;28.80;15.38;;;3.70;99.90;;;;;;5083560;28;20417;-52
2021/01/02 12:56:53;;;;;;;32.10;16.35;;;3.70;99.90;;;;;;5072508;28;20430;-52